Time;durP1;ratioP1;P1;durP2;ratioP2;P2;SDS_P1;SDS_P2;PMS_P1;PMS_P2;Temp;Humidity;BMP_temperature;BMP_pressure;BME280_temperature;BME280_humidity;BME280_pressure;Samples;Min_cycle;Max_cycle;Signal;HPM_P1;HPM_P2
2022/04/19 00:01:17;;;;;;;14.52;10.30;;;154.00;1996.80;;;;;;4826664;29;20034;-71
2022/04/19 00:03:43;;;;;;;16.42;11.60;;;154.00;2022.40;;;;;;4825489;29;20061;-71
2022/04/19 00:06:09;;;;;;;16.38;10.75;;;154.00;2252.80;;;;;;4810312;29;20069;-71
2022/04/19 00:08:35;;;;;;;19.83;11.07;;;154.00;2022.40;;;;;;4825419;29;20038;-71
2022/04/19 00:11:02;;;;;;;18.45;11.48;;;154.00;2022.40;;;;;;4810293;29;20046;-72
2022/04/19 00:13:28;;;;;;;18.65;11.23;;;154.00;2048.00;;;;;;4810155;29;20525;-71
2022/04/19 00:15:55;;;;;;;15.63;10.48;;;154.00;2022.40;;;;;;4826670;29;20459;-72
2022/04/19 00:18:22;;;;;;;14.25;9.75;;;154.00;2022.40;;;;;;4810207;29;20412;-74
2022/04/19 00:20:49;;;;;;;14.55;10.10;;;154.00;2022.40;;;;;;4810200;29;20049;-76
2022/04/19 00:23:15;;;;;;;17.27;10.23;;;;;;;;;;4826478;29;20038;-71
2022/04/19 00:25:46;;;;;;;16.33;10.25;;;;;;;;;;4826430;29;20109;-71
2022/04/19 00:28:13;;;;;;;15.85;10.73;;;;;;;;;;4810821;29;20038;-72
2022/04/19 00:30:39;;;;;;;16.92;11.10;;;;;;;;;;4827191;29;20030;-72
2022/04/19 00:33:07;;;;;;;15.68;11.02;;;;;;;;;;4810170;29;20054;-77
2022/04/19 00:35:33;;;;;;;14.82;11.50;;;;;;;;;;4829773;29;20496;-76
2022/04/19 00:38:00;;;;;;;22.85;15.15;;;128.20;2252.80;;;;;;4828860;29;20034;-71
2022/04/19 00:40:26;;;;;;;24.70;15.98;;;128.10;2252.80;;;;;;4826306;29;20362;-71
2022/04/19 00:42:55;;;;;;;31.08;17.98;;;128.00;2252.80;;;;;;4809817;29;20117;-76
2022/04/19 00:45:25;;;;;;;25.55;17.02;;;128.20;2252.80;;;;;;4809696;29;20483;-71
2022/04/19 00:47:52;;;;;;;28.08;18.10;;;128.10;2252.80;;;;;;4809696;29;20045;-75
2022/04/19 00:50:18;;;;;;;52.60;31.98;;;103.20;2227.20;;;;;;4809694;29;20087;-75
2022/04/19 00:52:45;;;;;;;102.25;57.90;;;128.20;2201.60;;;;;;4825918;29;20073;-71
2022/04/19 00:55:11;;;;;;;40.28;23.85;;;128.40;2150.40;;;;;;4809648;29;20457;-71
2022/04/19 00:57:38;;;;;;;30.77;19.67;;;103.20;2227.20;;;;;;4826199;29;20439;-72
2022/04/19 01:00:08;;;;;;;33.28;18.95;;;103.10;2227.20;;;;;;4825893;29;20469;-71
2022/04/19 01:02:36;;;;;;;32.47;19.50;;;103.10;2227.20;;;;;;4825904;29;20034;-71
2022/04/19 01:05:03;;;;;;;31.63;19.80;;;103.00;2227.20;;;;;;4825900;29;20069;-71
2022/04/19 01:07:29;;;;;;;31.65;19.40;;;103.10;2227.20;;;;;;4809217;29;20034;-71
2022/04/19 01:09:55;;;;;;;35.15;21.02;;;103.30;2227.20;;;;;;4809291;29;20038;-71
2022/04/19 01:15:08;;;;;;;50.83;24.98;;;103.30;2227.20;;;;;;4825262;29;20102;-71
2022/04/19 01:17:39;;;;;;;47.88;25.55;;;103.30;2227.20;;;;;;4825487;29;20042;-71
2022/04/19 01:20:10;;;;;;;52.17;27.67;;;103.30;2227.20;;;;;;4825763;29;20023;-71
2022/04/19 01:22:38;;;;;;;49.13;25.10;;;128.00;2252.80;;;;;;4809101;29;20034;-71
2022/04/19 01:25:05;;;;;;;46.28;26.42;;;103.30;2227.20;;;;;;4809058;29;20029;-71
2022/04/19 01:27:31;;;;;;;43.78;24.95;;;128.00;2252.80;;;;;;4808996;29;20034;-71
2022/04/19 01:30:03;;;;;;;42.22;25.13;;;103.30;2227.20;;;;;;4825363;29;20023;-71
2022/04/19 01:32:32;;;;;;;45.70;24.55;;;103.30;2227.20;;;;;;4825118;29;20085;-71
2022/04/19 01:35:09;;;;;;;43.65;25.13;;;128.00;2252.80;;;;;;4824078;29;20026;-71
2022/04/19 01:37:35;;;;;;;41.13;23.55;;;128.00;2252.80;;;;;;4825609;29;20062;-71
2022/04/19 01:40:17;;;;;;;46.95;23.73;;;103.30;2227.20;;;;;;4808777;29;20412;-76
2022/04/19 01:42:53;;;;;;;41.63;24.73;;;128.00;2227.20;;;;;;4808821;29;20057;-71
2022/04/19 01:45:24;;;;;;;44.78;25.98;;;103.20;2227.20;;;;;;4808730;29;20033;-76
2022/04/19 01:47:54;;;;;;;45.92;25.15;;;103.10;2227.20;;;;;;4808731;29;20133;-71
2022/04/19 01:50:21;;;;;;;46.92;25.48;;;103.10;2227.20;;;;;;4808626;29;20378;-71
2022/04/19 01:52:49;;;;;;;47.70;25.08;;;103.10;2227.20;;;;;;4808631;29;20167;-71
2022/04/19 01:55:17;;;;;;;43.70;24.05;;;103.10;2227.20;;;;;;4825066;29;20018;-71
2022/04/19 01:57:51;;;;;;;48.35;24.83;;;103.10;2227.20;;;;;;4808547;29;20030;-71
2022/04/19 02:00:18;;;;;;;41.13;23.88;;;103.00;2227.20;;;;;;4808516;29;20494;-71
2022/04/19 02:02:45;;;;;;;44.20;23.35;;;102.90;2227.20;;;;;;4823768;29;20027;-75
2022/04/19 02:05:11;;;;;;;40.67;23.90;;;102.90;2227.20;;;;;;4808448;29;20076;-71
2022/04/19 02:07:44;;;;;;;44.65;25.33;;;102.90;2227.20;;;;;;4824955;29;20507;-72
2022/04/19 02:10:12;;;;;;;38.33;24.52;;;102.80;2227.20;;;;;;4808478;29;20082;-71
2022/04/19 02:12:39;;;;;;;44.92;25.52;;;102.80;2227.20;;;;;;4808237;29;20492;-71
2022/04/19 02:15:06;;;;;;;43.38;25.67;;;102.60;2227.20;;;;;;4808348;29;20392;-76
2022/04/19 02:17:31;;;;;;;45.20;26.73;;;102.70;2227.20;;;;;;4823559;29;20038;-76
2022/04/19 02:19:59;;;;;;;40.50;24.75;;;102.70;2227.20;;;;;;4825003;29;20030;-71
2022/04/19 02:22:26;;;;;;;43.83;24.95;;;102.60;2227.20;;;;;;4808262;29;20034;-71
2022/04/19 02:24:53;;;;;;;43.70;23.27;;;102.40;2227.20;;;;;;4824584;29;20026;-71
2022/04/19 02:27:23;;;;;;;39.85;23.90;;;77.70;2227.20;;;;;;4824159;29;20110;-71
2022/04/19 02:29:49;;;;;;;42.83;23.23;;;;;;;;;;4824557;29;20031;-71
2022/04/19 02:32:15;;;;;;;40.72;22.98;;;;;;;;;;4807791;29;20058;-71
2022/04/19 02:34:41;;;;;;;36.85;21.95;;;;;;;;;;4824535;29;20097;-71
2022/04/19 02:37:08;;;;;;;41.40;24.63;;;;;;;;;;4808000;29;20037;-71
2022/04/19 02:39:36;;;;;;;39.58;22.65;;;;;;;;;;4824606;29;20053;-71
2022/04/19 02:42:03;;;;;;;41.08;22.38;;;;;;;;;;4824732;29;20026;-71
2022/04/19 02:44:29;;;;;;;40.63;21.88;;;;;;;;;;4824447;29;20381;-71
2022/04/19 02:46:55;;;;;;;34.42;20.85;;;;;;;;;;4824426;29;20045;-71
2022/04/19 02:49:21;;;;;;;36.60;20.42;;;;;;;;;;4807991;29;20083;-71
2022/04/19 02:51:48;;;;;;;32.85;19.83;;;;;;;;;;4824314;29;20120;-71
2022/04/19 02:54:14;;;;;;;30.17;19.42;;;;;;;;;;4824305;29;20432;-71
2022/04/19 02:56:42;;;;;;;29.15;18.25;;;;;;;;;;4824357;29;20030;-71
2022/04/19 02:59:09;;;;;;;27.65;17.95;;;;;;;;;;4824266;29;20121;-71
2022/04/19 03:01:35;;;;;;;26.85;17.23;;;;;;;;;;4824336;29;20023;-71
2022/04/19 03:04:02;;;;;;;29.00;17.75;;;;;;;;;;4824255;29;20034;-71
2022/04/19 03:06:28;;;;;;;29.75;17.42;;;;;;;;;;4824299;29;20502;-71
2022/04/19 03:08:54;;;;;;;24.98;16.70;;;;;;;;;;4824232;29;20114;-76
2022/04/19 03:11:20;;;;;;;27.00;17.60;;;;;;;;;;4808202;29;20035;-71
2022/04/19 03:13:47;;;;;;;25.10;16.98;;;;;;;;;;4824431;29;20035;-71
2022/04/19 03:16:13;;;;;;;29.75;17.45;;;;;;;;;;4807757;29;20086;-71
2022/04/19 03:18:42;;;;;;;24.38;16.55;;;;;;;;;;4824112;29;20041;-71
2022/04/19 03:21:11;;;;;;;;;;;52.10;2227.20;;;;;;4824453;29;20472;-71
2022/04/19 03:29:06;;;;;;;32.13;17.50;;;51.90;2227.20;;;;;;4824334;29;20415;-71
2022/04/19 03:31:33;;;;;;;28.63;18.20;;;51.70;2227.20;;;;;;4807317;29;20553;-71
2022/04/19 03:34:00;;;;;;;31.48;18.75;;;51.70;2227.20;;;;;;4822706;29;20420;-71
2022/04/19 03:36:26;;;;;;;31.63;22.58;;;51.80;2227.20;;;;;;4822988;29;20470;-71
2022/04/19 03:38:53;;;;;;;31.88;22.95;;;51.80;2227.20;;;;;;4809422;29;20408;-71
2022/04/19 03:41:19;;;;;;;32.60;22.30;;;51.90;2227.20;;;;;;4825984;29;20460;-71
2022/04/19 03:43:45;;;;;;;29.50;22.07;;;52.10;2227.20;;;;;;4809606;29;20766;-71
2022/04/19 03:46:11;;;;;;;31.27;22.45;;;52.10;2227.20;;;;;;4825671;29;20400;-71
2022/04/19 03:48:37;;;;;;;32.78;24.25;;;76.80;2227.20;;;;;;4809477;29;20974;-71
2022/04/19 03:51:04;;;;;;;28.88;22.75;;;76.90;2227.20;;;;;;4825747;29;20410;-71
2022/04/19 03:53:30;;;;;;;28.52;21.98;;;77.30;2227.20;;;;;;4809375;29;20426;-70
2022/04/19 03:55:58;;;;;;;28.23;22.60;;;77.00;2227.20;;;;;;4825632;29;20403;-71
2022/04/19 03:58:26;;;;;;;26.75;19.27;;;76.90;2227.20;;;;;;4810480;29;20035;-71
2022/04/19 04:00:54;;;;;;;29.75;18.25;;;52.10;2227.20;;;;;;4826701;29;20034;-71
2022/04/19 04:03:20;;;;;;;27.63;17.88;;;77.30;2227.20;;;;;;4810359;29;20030;-71
2022/04/19 04:05:46;;;;;;;28.33;18.52;;;51.80;2227.20;;;;;;4826661;29;20485;-71
2022/04/19 04:08:12;;;;;;;33.25;19.30;;;51.70;2227.20;;;;;;4826868;29;20299;-71
2022/04/19 04:10:37;;;;;;;25.98;17.70;;;51.80;2227.20;;;;;;4810290;29;20065;-71
2022/04/19 04:13:04;;;;;;;26.25;17.08;;;51.90;2227.20;;;;;;4810077;29;20046;-71
2022/04/19 04:15:30;;;;;;;30.98;18.23;;;52.00;2227.20;;;;;;4826465;29;20033;-71
2022/04/19 04:17:56;;;;;;;23.73;17.35;;;77.10;2227.20;;;;;;4826679;29;20065;-71
2022/04/19 04:20:22;;;;;;;25.63;17.65;;;77.20;2227.20;;;;;;4826405;29;20031;-71
2022/04/19 04:22:48;;;;;;;27.13;18.30;;;77.10;2227.20;;;;;;4810018;29;20129;-71
2022/04/19 04:25:13;;;;;;;28.02;18.20;;;77.40;2227.20;;;;;;4826305;29;20030;-71
2022/04/19 04:27:39;;;;;;;26.23;18.05;;;77.50;2227.20;;;;;;4826559;29;20041;-71
2022/04/19 04:30:06;;;;;;;32.63;19.08;;;77.40;2227.20;;;;;;4826442;29;20389;-74
2022/04/19 04:32:32;;;;;;;23.92;16.17;;;77.70;2227.20;;;;;;4809714;29;20195;-71
2022/04/19 04:34:58;;;;;;;25.17;18.35;;;77.50;2227.20;;;;;;4809923;29;20527;-76
2022/04/19 04:37:24;;;;;;;21.52;16.20;;;77.30;2227.20;;;;;;4824898;29;20044;-71
2022/04/19 04:39:50;;;;;;;22.90;15.73;;;77.40;2227.20;;;;;;4809759;29;20109;-71
2022/04/19 04:42:16;;;;;;;22.05;16.23;;;77.60;2227.20;;;;;;4809749;29;20153;-71
2022/04/19 04:44:42;;;;;;;22.83;17.13;;;77.60;2227.20;;;;;;4809708;29;20030;-71
2022/04/19 04:49:52;;;;;;;28.65;19.02;;;77.40;2227.20;;;;;;4825643;29;20114;-75
2022/04/19 04:52:18;;;;;;;34.80;22.10;;;77.50;2227.20;;;;;;4825975;29;20072;-71
2022/04/19 04:54:45;;;;;;;47.35;26.50;;;77.50;2227.20;;;;;;4826054;29;20034;-75
2022/04/19 04:57:11;;;;;;;63.42;33.15;;;102.40;2227.20;;;;;;4825839;29;20400;-71
2022/04/19 04:59:37;;;;;;;64.97;34.75;;;102.40;2227.20;;;;;;4809464;29;20026;-71
2022/04/19 05:02:04;;;;;;;107.70;50.28;;;77.50;2227.20;;;;;;4825825;29;20441;-71
2022/04/19 05:04:32;;;;;;;186.60;91.68;;;102.50;2227.20;;;;;;4809441;29;20035;-71
2022/04/19 05:06:59;;;;;;;112.43;57.10;;;102.50;2227.20;;;;;;4809216;29;20391;-71
2022/04/19 05:09:25;;;;;;;115.72;56.38;;;102.60;2227.20;;;;;;4825787;29;20065;-75
2022/04/19 05:11:52;;;;;;;118.20;57.17;;;102.80;2227.20;;;;;;4809198;29;20403;-71
2022/04/19 05:14:19;;;;;;;122.68;57.65;;;103.10;2227.20;;;;;;4825749;29;20030;-72
2022/04/19 05:16:46;;;;;;;111.00;57.30;;;103.10;2227.20;;;;;;4809264;29;20034;-71
2022/04/19 05:19:12;;;;;;;117.53;57.22;;;128.20;2252.80;;;;;;4809101;29;20492;-71
2022/04/19 05:21:38;;;;;;;105.50;53.40;;;128.00;2252.80;;;;;;4825529;29;20030;-71
2022/04/19 05:24:09;;;;;;;118.00;55.95;;;128.10;2252.80;;;;;;4824285;29;20117;-71
2022/04/19 05:26:35;;;;;;;114.40;57.05;;;128.10;2252.80;;;;;;4825557;29;20488;-71
2022/04/19 05:29:02;;;;;;;93.43;48.60;;;128.50;2252.80;;;;;;4809004;29;20062;-76
2022/04/19 05:31:28;;;;;;;92.35;48.00;;;128.60;2252.80;;;;;;4825190;29;20133;-72
2022/04/19 05:33:54;;;;;;;83.50;42.38;;;128.80;2252.80;;;;;;4808945;29;20045;-71
2022/04/19 05:36:22;;;;;;;92.70;43.28;;;128.80;2252.80;;;;;;4808881;29;20079;-71
2022/04/19 05:38:52;;;;;;;78.45;39.72;;;128.90;2252.80;;;;;;4808846;29;20026;-71
2022/04/19 05:41:21;;;;;;;78.97;40.00;;;128.90;2252.80;;;;;;4808799;29;20030;-72
2022/04/19 05:43:49;;;;;;;74.85;38.42;;;153.60;2252.80;;;;;;4825197;29;20057;-71
2022/04/19 05:46:17;;;;;;;77.35;38.63;;;153.70;2252.80;;;;;;4808742;29;20054;-72
2022/04/19 05:48:46;;;;;;;77.38;38.80;;;153.90;2252.80;;;;;;4825192;29;20464;-72
2022/04/19 05:51:13;;;;;;;69.10;37.03;;;153.90;2252.80;;;;;;4808656;29;20046;-72
2022/04/19 05:53:39;;;;;;;73.18;37.10;;;154.20;2252.80;;;;;;4808544;29;20043;-71
2022/04/19 05:56:05;;;;;;;69.20;36.22;;;154.40;2252.80;;;;;;4808525;29;20472;-72
2022/04/19 05:58:31;;;;;;;72.28;35.88;;;154.50;2252.80;;;;;;4808490;29;20034;-71
2022/04/19 06:00:57;;;;;;;62.80;35.58;;;179.20;2252.80;;;;;;4808414;29;20399;-71
2022/04/19 06:06:06;;;;;;;;;;;179.40;2252.80;;;;;;4825738;29;20048;-72
2022/04/19 06:08:33;;;;;;;32.35;18.70;;;179.60;2252.80;;;;;;4808398;29;19908;-71
2022/04/19 06:10:59;;;;;;;29.17;18.27;;;179.70;2252.80;;;;;;4824816;29;20053;-74
2022/04/19 06:13:25;;;;;;;26.17;17.58;;;179.60;2252.80;;;;;;4808003;29;20138;-75
2022/04/19 06:15:50;;;;;;;29.73;18.35;;;179.70;2252.80;;;;;;4823654;29;20030;-73
2022/04/19 06:18:16;;;;;;;29.10;17.60;;;179.80;2252.80;;;;;;4808329;29;20041;-73
2022/04/19 06:20:42;;;;;;;27.13;16.55;;;179.90;2252.80;;;;;;4808318;29;20054;-73
2022/04/19 06:23:09;;;;;;;22.92;12.55;;;204.80;2252.80;;;;;;4808313;29;20034;-75
2022/04/19 06:25:35;;;;;;;20.00;12.98;;;204.80;2252.80;;;;;;4808290;29;20033;-76
2022/04/19 06:28:00;;;;;;;17.55;12.48;;;204.90;2252.80;;;;;;4808277;29;20034;-74
2022/04/19 06:30:26;;;;;;;21.98;12.65;;;205.10;2252.80;;;;;;4808087;29;20031;-73
2022/04/19 06:32:53;;;;;;;19.42;13.13;;;205.10;2252.80;;;;;;4807891;29;20050;-73
2022/04/19 06:35:19;;;;;;;65.55;42.38;;;205.10;2252.80;;;;;;4808053;29;20099;-71
2022/04/19 06:37:46;;;;;;;31.35;20.55;;;205.20;2252.80;;;;;;4824322;29;20062;-71
2022/04/19 06:40:12;;;;;;;48.05;28.75;;;205.40;2252.80;;;;;;4824487;29;20030;-73
2022/04/19 06:42:38;;;;;;;28.23;17.60;;;205.50;2252.80;;;;;;4824551;29;20106;-72
2022/04/19 06:45:04;;;;;;;15.02;11.70;;;;;;;;;;4824750;29;20487;-71
2022/04/19 06:47:31;;;;;;;18.08;11.50;;;;;;;;;;4807973;29;20046;-72
2022/04/19 06:49:57;;;;;;;15.82;11.60;;;230.40;2252.80;;;;;;4808088;29;20031;-73
2022/04/19 06:52:24;;;;;;;12.38;9.32;;;230.40;2252.80;;;;;;4808001;29;20203;-73
2022/04/19 06:54:50;;;;;;;12.80;9.20;;;230.50;2252.80;;;;;;4807972;29;20030;-75
2022/04/19 06:57:16;;;;;;;13.45;8.77;;;230.70;2227.20;;;;;;4808625;29;20034;-76
2022/04/19 06:59:42;;;;;;;13.02;8.13;;;230.80;2252.80;;;;;;4824729;29;20395;-73
2022/04/19 07:02:08;;;;;;;9.52;7.15;;;230.80;2201.60;;;;;;4823937;29;20031;-75
2022/04/19 07:04:33;;;;;;;12.57;6.93;;;231.30;2150.40;;;;;;4808642;29;20035;-73
2022/04/19 07:07:01;;;;;;;12.60;7.75;;;231.30;2252.80;;;;;;4807307;29;20030;-74
2022/04/19 07:09:27;;;;;;;12.18;7.57;;;256.10;2124.80;;;;;;4807364;29;20034;-74
2022/04/19 07:11:52;;;;;;;18.40;11.30;;;256.30;2099.20;;;;;;4807653;29;20027;-82
2022/04/19 07:14:18;;;;;;;20.00;11.23;;;256.80;2048.00;;;;;;4810864;29;20031;-78
2022/04/19 07:16:44;;;;;;;15.52;9.45;;;281.80;2048.00;;;;;;4810752;29;20026;-73
2022/04/19 07:19:11;;;;;;;14.82;9.85;;;;;;;;;;4826938;29;20026;-74
2022/04/19 07:27:05;;;;;;;;;;;307.60;1868.80;;;;;;4827181;29;20049;-74
2022/04/19 07:29:30;;;;;;;11.77;8.02;;;307.80;1817.60;;;;;;4810603;29;19908;-74
2022/04/19 07:31:56;;;;;;;8.27;6.25;;;332.90;1843.20;;;;;;4826495;29;20461;-75
2022/04/19 07:34:24;;;;;;;10.15;6.68;;;332.90;1766.40;;;;;;4810476;29;20416;-77
2022/04/19 07:36:50;;;;;;;14.38;10.23;;;332.90;1766.40;;;;;;4824459;29;20030;-75
2022/04/19 07:39:15;;;;;;;15.27;9.52;;;308.10;1792.00;;;;;;4826671;29;20476;-79
2022/04/19 07:41:46;;;;;;;15.60;11.15;;;333.00;1740.80;;;;;;4810495;29;20110;-78
2022/04/19 07:44:14;;;;;;;12.13;7.93;;;333.00;1715.20;;;;;;4824848;29;20030;-78
2022/04/19 07:46:42;;;;;;;11.13;8.32;;;332.80;1740.80;;;;;;4810432;29;20038;-76
2022/04/19 07:49:08;;;;;;;11.85;7.22;;;333.30;1689.60;;;;;;4810266;29;20091;-74
2022/04/19 07:51:35;;;;;;;8.13;6.38;;;333.50;1664.00;;;;;;4810285;29;20022;-78
2022/04/19 07:54:01;;;;;;;14.38;7.13;;;333.70;1612.80;;;;;;4826607;29;20049;-76
2022/04/19 07:56:27;;;;;;;15.27;7.88;;;358.40;1587.20;;;;;;4810171;29;20030;-79
2022/04/19 07:58:53;;;;;;;18.77;10.77;;;333.60;1587.20;;;;;;4826368;29;20033;-77
2022/04/19 08:01:19;;;;;;;9.98;7.55;;;358.60;1561.60;;;;;;4810138;29;20025;-79
2022/04/19 08:03:45;;;;;;;19.85;13.10;;;358.40;1561.60;;;;;;4826396;29;20027;-72
2022/04/19 08:06:12;;;;;;;8.43;6.10;;;358.40;1561.60;;;;;;4826019;29;20412;-75
2022/04/19 08:08:38;;;;;;;18.27;8.60;;;358.60;1561.60;;;;;;4826638;29;20030;-76
2022/04/19 08:11:04;;;;;;;9.65;6.13;;;358.90;1536.00;;;;;;4826410;29;20038;-71
2022/04/19 08:13:30;;;;;;;7.85;5.20;;;358.80;1459.20;;;;;;4809846;29;20038;-75
2022/04/19 08:15:56;;;;;;;7.80;5.55;;;358.50;1433.60;;;;;;4826010;29;20132;-74
2022/04/19 08:18:22;;;;;;;8.68;5.38;;;358.50;1459.20;;;;;;4809734;29;20030;-71
2022/04/19 08:20:50;;;;;;;9.15;5.70;;;358.60;1484.80;;;;;;4826271;29;20034;-72
2022/04/19 08:23:16;;;;;;;9.80;5.72;;;359.10;1459.20;;;;;;4825409;29;20039;-76
2022/04/19 08:25:45;;;;;;;15.00;10.23;;;358.70;1459.20;;;;;;4825390;29;20026;-74
2022/04/19 08:28:11;;;;;;;9.95;6.53;;;358.50;1561.60;;;;;;4825827;29;20034;-74
2022/04/19 08:30:37;;;;;;;10.48;6.97;;;333.40;1536.00;;;;;;4825731;29;20042;-73
2022/04/19 08:33:03;;;;;;;20.35;14.00;;;333.50;1587.20;;;;;;4825526;29;20055;-73
2022/04/19 08:35:29;;;;;;;14.38;9.52;;;333.10;1612.80;;;;;;4825684;29;20039;-75
2022/04/19 08:37:56;;;;;;;16.52;11.73;;;333.00;1638.40;;;;;;4809299;29;20459;-77
2022/04/19 08:40:22;;;;;;;42.25;24.48;;;308.10;1638.40;;;;;;4825721;29;20522;-76
2022/04/19 08:42:48;;;;;;;39.63;24.52;;;332.80;1664.00;;;;;;4824360;29;20050;-75
2022/04/19 08:45:16;;;;;;;10.55;7.95;;;307.90;1689.60;;;;;;4809145;29;20026;-74
2022/04/19 08:47:44;;;;;;;19.13;12.57;;;332.80;1715.20;;;;;;4809497;29;20037;-80
2022/04/19 08:50:18;;;;;;;14.10;8.35;;;332.80;1715.20;;;;;;4825986;29;20113;-72
2022/04/19 08:52:44;;;;;;;13.57;9.20;;;308.10;1715.20;;;;;;4809514;29;20424;-73
2022/04/19 08:58:00;;;;;;;11.68;7.50;;;332.90;1740.80;;;;;;4823991;29;20041;-76
2022/04/19 09:00:27;;;;;;;8.18;5.18;;;332.80;1766.40;;;;;;4809110;29;20030;-76
2022/04/19 09:02:57;;;;;;;9.60;7.03;;;307.80;1792.00;;;;;;4825389;29;20026;-72
2022/04/19 09:05:27;;;;;;;20.42;13.55;;;307.90;1817.60;;;;;;4825275;29;20464;-73
2022/04/19 09:07:57;;;;;;;55.28;32.58;;;308.00;1868.80;;;;;;4807013;29;20053;-76
2022/04/19 09:10:32;;;;;;;15.32;9.52;;;308.10;1868.80;;;;;;4808878;29;20030;-74
2022/04/19 09:13:06;;;;;;;13.98;9.07;;;333.10;1843.20;;;;;;4822516;29;20507;-70
2022/04/19 09:15:42;;;;;;;15.40;10.82;;;333.50;1817.60;;;;;;4823253;29;20055;-72
2022/04/19 09:18:29;;;;;;;10.52;6.32;;;333.60;1766.40;;;;;;4823781;29;20038;-72
2022/04/19 09:20:57;;;;;;;46.17;29.15;;;333.40;1817.60;;;;;;4806957;29;20064;-73
2022/04/19 09:23:24;;;;;;;42.40;22.77;;;333.30;1843.20;;;;;;4808613;29;20030;-73
2022/04/19 09:25:56;;;;;;;18.17;14.35;;;333.30;1817.60;;;;;;4822714;29;20030;-74
2022/04/19 09:28:24;;;;;;;9.00;4.75;;;333.70;1766.40;;;;;;4808203;29;20034;-76
2022/04/19 09:30:56;;;;;;;9.98;4.95;;;333.60;1792.00;;;;;;4808380;29;20044;-72
2022/04/19 09:33:25;;;;;;;6.37;4.80;;;333.30;1792.00;;;;;;4808264;29;20062;-78
2022/04/19 09:35:53;;;;;;;9.63;5.43;;;333.10;1817.60;;;;;;4824661;29;20273;-72
2022/04/19 09:38:32;;;;;;;8.52;6.38;;;308.00;1868.80;;;;;;4808629;29;20034;-73
2022/04/19 09:40:58;;;;;;;8.85;5.55;;;308.00;1894.40;;;;;;4825265;29;20038;-70
2022/04/19 09:43:24;;;;;;;10.82;4.50;;;308.00;1868.80;;;;;;4825180;29;20034;-70
2022/04/19 09:46:02;;;;;;;12.05;7.85;;;307.70;1894.40;;;;;;4808723;29;20033;-72
2022/04/19 09:48:29;;;;;;;6.57;5.47;;;307.60;1894.40;;;;;;4808606;29;20129;-72
2022/04/19 09:51:09;;;;;;;12.23;6.50;;;307.80;1868.80;;;;;;4808656;29;20037;-70
2022/04/19 09:53:40;;;;;;;17.27;10.07;;;307.40;1945.60;;;;;;4824190;29;20045;-73
2022/04/19 09:56:16;;;;;;;10.40;7.88;;;282.30;1971.20;;;;;;4825039;29;20041;-71
2022/04/19 09:58:44;;;;;;;10.13;7.55;;;282.50;1971.20;;;;;;4808561;29;20512;-71
2022/04/19 10:08:10;;;;;;;39.97;26.67;;;282.00;1996.80;;;;;;4824972;29;20042;-71
2022/04/19 10:09:32;;;;;;;9.60;5.43;;;281.70;2048.00;;;;;;4825215;29;20023;-73
2022/04/19 10:11:59;;;;;;;6.75;4.70;;;281.70;2022.40;;;;;;4808354;29;20026;-72
2022/04/19 10:14:25;;;;;;;8.15;5.50;;;282.00;1971.20;;;;;;4808420;29;20037;-74
2022/04/19 10:16:53;;;;;;;7.63;4.80;;;282.10;1920.00;;;;;;4808372;29;20068;-71
2022/04/19 10:19:19;;;;;;;9.45;4.88;;;282.30;1868.80;;;;;;4808305;29;20455;-72
2022/04/19 10:21:47;;;;;;;10.93;5.25;;;282.30;1792.00;;;;;;4824632;29;20389;-70
2022/04/19 10:24:15;;;;;;;12.05;7.43;;;282.40;1740.80;;;;;;4824699;29;20042;-74
2022/04/19 10:26:46;;;;;;;12.13;7.20;;;307.20;1715.20;;;;;;4824617;29;20023;-74
2022/04/19 10:29:24;;;;;;;8.07;5.65;;;307.30;1715.20;;;;;;4808170;29;20038;-74
2022/04/19 10:32:01;;;;;;;19.20;13.45;;;307.60;1715.20;;;;;;4807926;29;20117;-73
2022/04/19 10:34:29;;;;;;;14.15;9.73;;;308.10;1715.20;;;;;;4824519;29;20035;-75
2022/04/19 10:37:01;;;;;;;7.50;4.80;;;333.00;1664.00;;;;;;4807949;29;20113;-75
2022/04/19 10:39:32;;;;;;;39.80;25.63;;;333.10;1664.00;;;;;;4824570;29;20045;-74
2022/04/19 10:42:05;;;;;;;91.85;58.38;;;333.30;1638.40;;;;;;4823293;29;20079;-76
2022/04/19 10:44:43;;;;;;;13.85;6.40;;;333.70;1612.80;;;;;;4808106;29;20495;-73
2022/04/19 10:47:15;;;;;;;61.67;27.38;;;358.50;1587.20;;;;;;4808816;29;20030;-74
2022/04/19 10:50:04;;;;;;;6.47;3.97;;;359.00;1561.60;;;;;;4826882;29;20113;-73
2022/04/19 10:52:36;;;;;;;7.45;3.83;;;359.20;1484.80;;;;;;4811667;29;20041;-72
2022/04/19 10:55:08;;;;;;;7.28;3.85;;;384.00;1459.20;;;;;;4811702;29;20026;-71
2022/04/19 10:58:06;;;;;;;6.85;3.75;;;384.20;1433.60;;;;;;4827902;29;20472;-72
2022/04/19 11:00:34;;;;;;;7.47;3.80;;;384.00;1433.60;;;;;;4811572;29;20054;-70
2022/04/19 11:03:05;;;;;;;8.77;6.00;;;384.20;1382.40;;;;;;4811798;29;20425;-73
2022/04/19 11:05:36;;;;;;;13.13;8.70;;;384.20;1382.40;;;;;;4827751;29;20065;-72
2022/04/19 11:08:32;;;;;;;3.67;2.90;;;384.30;1382.40;;;;;;4811490;29;20045;-77
2022/04/19 11:11:20;;;;;;;10.43;6.80;;;384.30;1331.20;;;;;;4819727;29;20087;-72
2022/04/19 11:14:16;;;;;;;19.42;11.50;;;409.60;1331.20;;;;;;4827692;29;20129;-74
2022/04/19 11:16:43;;;;;;;6.68;4.30;;;409.80;1356.80;;;;;;4826329;29;20031;-73
2022/04/19 11:19:17;;;;;;;16.15;10.52;;;384.60;1408.00;;;;;;4811167;29;20035;-76
2022/04/19 11:21:48;;;;;;;7.65;4.03;;;384.90;1331.20;;;;;;4827471;29;20035;-76
2022/04/19 11:24:52;;;;;;;6.35;4.50;;;384.90;1331.20;;;;;;4827362;29;20026;-73
2022/04/19 11:27:19;;;;;;;8.50;5.55;;;384.90;1356.80;;;;;;4827238;29;20535;-74
2022/04/19 11:29:54;;;;;;;8.02;4.60;;;384.20;1408.00;;;;;;4827187;29;20045;-72
2022/04/19 11:32:25;;;;;;;8.05;5.25;;;384.10;1433.60;;;;;;4827148;29;20046;-71
2022/04/19 11:35:01;;;;;;;6.07;4.40;;;384.10;1459.20;;;;;;4810913;29;20030;-74
2022/04/19 11:37:29;;;;;;;7.68;4.70;;;359.30;1484.80;;;;;;4810908;29;20030;-74
2022/04/19 11:48:33;;;;;;;7.38;5.00;;;359.10;1536.00;;;;;;4827597;29;20487;-75
2022/04/19 11:51:09;;;;;;;6.25;4.25;;;359.00;1561.60;;;;;;4810703;29;20500;-75
2022/04/19 11:53:35;;;;;;;8.63;5.28;;;359.10;1561.60;;;;;;4826829;29;20406;-73
2022/04/19 11:56:02;;;;;;;8.77;5.28;;;384.60;1510.40;;;;;;4810650;29;20038;-75
2022/04/19 11:58:28;;;;;;;7.18;4.53;;;409.60;1536.00;;;;;;4810360;29;20030;-75
2022/04/19 12:01:06;;;;;;;10.05;5.93;;;409.80;1484.80;;;;;;4826781;29;20030;-74
2022/04/19 12:03:33;;;;;;;8.38;5.75;;;409.80;1510.40;;;;;;4827386;29;20365;-71
2022/04/19 12:06:15;;;;;;;10.60;5.35;;;410.40;1484.80;;;;;;4810396;29;20027;-76
2022/04/19 12:08:42;;;;;;;7.22;4.88;;;410.40;1459.20;;;;;;4810390;29;20030;-74
2022/04/19 12:11:19;;;;;;;7.50;4.80;;;410.30;1433.60;;;;;;4826663;29;20430;-73
2022/04/19 12:13:46;;;;;;;10.80;5.00;;;410.40;1433.60;;;;;;4826863;29;20038;-75
2022/04/19 12:16:35;;;;;;;9.32;6.35;;;410.40;1433.60;;;;;;4810291;29;20038;-69
2022/04/19 12:19:09;;;;;;;5.80;4.80;;;435.20;1433.60;;;;;;4826507;29;20558;-74
2022/04/19 12:21:40;;;;;;;5.55;4.10;;;410.20;1433.60;;;;;;4810160;29;20429;-77
2022/04/19 12:24:21;;;;;;;7.03;3.67;;;384.70;1510.40;;;;;;4826432;29;20030;-74
2022/04/19 12:27:06;;;;;;;6.43;4.60;;;384.70;1459.20;;;;;;4810158;29;20041;-74
2022/04/19 12:29:35;;;;;;;7.32;4.38;;;384.20;1484.80;;;;;;4810118;29;20030;-75
2022/04/19 12:32:03;;;;;;;7.93;4.88;;;359.30;1536.00;;;;;;4809959;29;20385;-73
2022/04/19 12:34:39;;;;;;;6.38;4.45;;;384.00;1561.60;;;;;;4809897;29;20038;-72
2022/04/19 12:37:13;;;;;;;9.23;5.53;;;359.20;1561.60;;;;;;4809977;29;20035;-73
2022/04/19 12:39:40;;;;;;;10.88;7.35;;;359.30;1612.80;;;;;;4825380;29;20850;-73
2022/04/19 12:42:11;;;;;;;11.05;6.65;;;384.00;1587.20;;;;;;4809009;29;20392;-72
2022/04/19 12:44:39;;;;;;;6.22;4.80;;;384.70;1536.00;;;;;;4809853;29;20034;-73
2022/04/19 12:47:16;;;;;;;7.65;4.85;;;384.70;1510.40;;;;;;4809802;29;20121;-74
2022/04/19 12:49:47;;;;;;;6.95;4.50;;;384.90;1536.00;;;;;;4809771;29;20385;-73
2022/04/19 12:52:15;;;;;;;18.80;10.23;;;384.50;1510.40;;;;;;4825979;29;20488;-73
2022/04/19 12:54:47;;;;;;;7.38;4.97;;;384.60;1587.20;;;;;;4825120;29;20392;-73
2022/04/19 12:57:17;;;;;;;6.57;4.72;;;409.60;1510.40;;;;;;4824834;29;20408;-75
2022/04/19 12:59:44;;;;;;;;;;;384.80;1484.80;;;;;;4810028;29;20031;-75
2022/04/19 13:02:13;;;;;;;7.93;5.20;;;384.80;1510.40;;;;;;4825905;29;20017;-73